createdAt,value
2023-06-22T00:01:04.851Z,3.05
2023-06-22T00:03:33.376Z,3.20
2023-06-22T00:06:01.833Z,2.95
2023-06-22T00:08:30.224Z,3.10
2023-06-22T00:10:58.689Z,3.10
2023-06-22T00:13:27.130Z,2.80
2023-06-22T00:15:55.645Z,3.22
2023-06-22T00:18:28.796Z,3.05
2023-06-22T00:20:59.784Z,3.15
2023-06-22T00:23:28.394Z,2.97
2023-06-22T00:25:56.941Z,2.60
2023-06-22T00:28:25.396Z,3.35
2023-06-22T00:30:53.915Z,3.47
2023-06-22T00:33:22.413Z,2.97
2023-06-22T00:35:53.751Z,3.10
2023-06-22T00:38:22.293Z,3.00
2023-06-22T00:40:50.750Z,3.10
2023-06-22T00:43:19.193Z,2.90
2023-06-22T00:45:48.266Z,2.92
2023-06-22T00:48:20.168Z,3.10
2023-06-22T00:50:51.586Z,2.78
2023-06-22T00:53:21.741Z,3.20
2023-06-22T00:55:52.629Z,3.03
2023-06-22T00:58:22.903Z,3.03
2023-06-22T01:00:51.543Z,3.05
2023-06-22T01:03:22.056Z,2.95
2023-06-22T01:05:52.196Z,2.78
2023-06-22T01:08:31.901Z,2.50
2023-06-22T01:11:08.070Z,2.83
2023-06-22T01:13:43.181Z,2.90
2023-06-22T01:16:18.143Z,2.83
2023-06-22T01:18:48.745Z,2.70
2023-06-22T01:21:19.899Z,3.05
2023-06-22T01:24:09.342Z,2.90
2023-06-22T01:26:42.843Z,3.03
2023-06-22T01:29:15.053Z,2.75
2023-06-22T01:31:45.783Z,2.65
2023-06-22T01:34:16.021Z,3.15
2023-06-22T01:36:45.606Z,2.78
2023-06-22T01:39:14.982Z,3.03
2023-06-22T01:41:45.526Z,2.65
2023-06-22T01:44:18.845Z,3.00
2023-06-22T01:46:48.194Z,2.90
2023-06-22T01:49:17.316Z,3.03
2023-06-22T01:51:45.827Z,2.80
2023-06-22T01:54:14.354Z,2.63
2023-06-22T01:56:42.824Z,2.92
2023-06-22T01:59:16.377Z,3.10
2023-06-22T02:01:53.701Z,2.72
2023-06-22T02:04:26.419Z,2.58
2023-06-22T02:06:59.124Z,2.83
2023-06-22T02:09:32.782Z,3.17
2023-06-22T02:12:06.268Z,2.63
2023-06-22T02:14:36.644Z,2.70
2023-06-22T02:17:08.762Z,2.65
2023-06-22T02:19:38.959Z,2.88
2023-06-22T02:22:07.589Z,2.80
2023-06-22T02:24:36.140Z,3.00
2023-06-22T02:27:07.001Z,2.92
2023-06-22T02:29:35.607Z,2.72
2023-06-22T02:32:06.601Z,2.78
2023-06-22T02:34:35.153Z,2.83
2023-06-22T02:37:03.807Z,2.80
2023-06-22T02:39:32.350Z,3.03
2023-06-22T02:42:00.821Z,2.60
2023-06-22T02:44:29.340Z,2.88
2023-06-22T02:46:57.966Z,2.92
2023-06-22T02:49:28.550Z,3.42
2023-06-22T02:51:57.423Z,2.70
2023-06-22T02:54:26.502Z,2.92
2023-06-22T02:56:56.352Z,3.10
2023-06-22T02:59:25.405Z,2.40
2023-06-22T03:02:00.692Z,2.85
2023-06-22T03:04:33.908Z,2.78
2023-06-22T03:07:03.044Z,2.65
2023-06-22T03:09:33.425Z,2.33
2023-06-22T03:12:03.146Z,2.85
2023-06-22T03:14:40.555Z,2.42
2023-06-22T03:17:11.914Z,2.85
2023-06-22T03:19:41.887Z,2.72
2023-06-22T03:22:12.108Z,2.60
2023-06-22T03:24:42.882Z,2.67
2023-06-22T03:27:11.410Z,2.70
2023-06-22T03:29:39.939Z,2.63
2023-06-22T03:32:09.027Z,2.60
2023-06-22T03:34:38.031Z,2.85
2023-06-22T03:37:08.055Z,2.50
2023-06-22T03:39:36.567Z,2.53
2023-06-22T03:42:06.455Z,2.92
2023-06-22T03:44:36.688Z,2.75
2023-06-22T03:47:08.287Z,2.72
2023-06-22T03:49:38.133Z,2.65
2023-06-22T03:52:08.931Z,2.75
2023-06-22T03:54:37.406Z,2.92
2023-06-22T03:57:06.587Z,3.33
2023-06-22T03:59:35.213Z,3.63
2023-06-22T04:02:03.713Z,3.78
2023-06-22T04:04:32.296Z,3.67
2023-06-22T04:07:00.910Z,3.53
2023-06-22T04:09:30.749Z,4.18
2023-06-22T04:11:59.286Z,3.72
2023-06-22T04:14:27.795Z,3.88
2023-06-22T04:16:56.302Z,3.90
2023-06-22T04:19:24.804Z,4.07
2023-06-22T04:21:53.218Z,3.97
2023-06-22T04:24:21.684Z,3.80
2023-06-22T04:26:54.696Z,4.13
2023-06-22T04:29:31.165Z,3.70
2023-06-22T04:32:04.108Z,3.92
2023-06-22T04:34:33.115Z,3.67
2023-06-22T04:37:01.614Z,3.83
2023-06-22T04:39:30.127Z,4.50
2023-06-22T04:42:01.435Z,3.90
2023-06-22T04:44:30.113Z,4.68
2023-06-22T04:47:03.200Z,3.78
2023-06-22T04:49:35.443Z,4.22
2023-06-22T04:52:05.712Z,4.47
2023-06-22T04:54:34.972Z,4.18
2023-06-22T04:57:10.819Z,4.22
2023-06-22T04:59:42.606Z,3.90
2023-06-22T05:02:11.689Z,4.10
2023-06-22T05:04:40.917Z,4.20
2023-06-22T05:07:10.119Z,3.85
2023-06-22T05:09:39.137Z,5.00
2023-06-22T05:12:11.333Z,4.55
2023-06-22T05:14:40.428Z,4.43
2023-06-22T05:17:16.117Z,4.05
2023-06-22T05:19:46.130Z,4.50
2023-06-22T05:22:14.813Z,4.45
2023-06-22T05:24:43.718Z,4.45
2023-06-22T05:27:13.636Z,4.20
2023-06-22T05:29:43.575Z,4.15
2023-06-22T05:32:12.117Z,4.25
2023-06-22T05:34:41.040Z,4.10
2023-06-22T05:37:10.606Z,4.13
2023-06-22T05:39:39.862Z,3.67
2023-06-22T05:42:10.871Z,3.67
2023-06-22T05:44:41.845Z,3.85
2023-06-22T05:47:10.445Z,3.50
2023-06-22T05:49:38.897Z,3.30
2023-06-22T05:52:07.805Z,3.42
2023-06-22T05:54:36.782Z,3.60
2023-06-22T05:57:06.014Z,3.50
2023-06-22T05:59:34.499Z,3.03
2023-06-22T06:02:04.933Z,3.35
2023-06-22T06:04:33.592Z,3.53
2023-06-22T06:07:02.235Z,2.75
2023-06-22T06:09:30.782Z,3.08
2023-06-22T06:11:59.471Z,3.33
2023-06-22T06:14:28.095Z,3.60
2023-06-22T06:16:56.583Z,3.22
2023-06-22T06:19:26.404Z,3.22
2023-06-22T06:21:54.969Z,3.40
2023-06-22T06:24:23.528Z,2.95
2023-06-22T06:26:52.437Z,3.13
2023-06-22T06:29:20.943Z,3.05
2023-06-22T06:31:49.526Z,2.83
2023-06-22T06:34:18.096Z,2.97
2023-06-22T06:36:47.978Z,2.83
2023-06-22T06:39:17.092Z,3.30
2023-06-22T06:41:45.619Z,3.20
2023-06-22T06:44:17.804Z,2.80
2023-06-22T06:46:46.470Z,2.70
2023-06-22T06:49:15.454Z,3.10
2023-06-22T06:51:43.919Z,2.83
2023-06-22T06:54:13.814Z,2.92
2023-06-22T06:56:49.146Z,2.80
2023-06-22T06:59:17.823Z,2.95
2023-06-22T07:01:46.775Z,2.83
2023-06-22T07:04:15.370Z,3.15
2023-06-22T07:06:43.984Z,2.85
2023-06-22T07:09:13.900Z,2.92
2023-06-22T07:11:42.462Z,2.60
2023-06-22T07:14:11.031Z,2.72
2023-06-22T07:16:39.727Z,3.17
2023-06-22T07:19:10.497Z,3.22
2023-06-22T07:21:40.496Z,2.42
2023-06-22T07:24:09.417Z,2.63
2023-06-22T07:26:39.389Z,2.78
2023-06-22T07:29:08.582Z,2.75
2023-06-22T07:31:37.197Z,2.67
2023-06-22T07:34:05.761Z,2.70
2023-06-22T07:36:36.329Z,2.85
2023-06-22T07:39:05.016Z,2.72
2023-06-22T07:41:33.761Z,2.80
2023-06-22T07:44:04.274Z,2.88
2023-06-22T07:46:32.786Z,2.75
2023-06-22T07:49:02.337Z,2.90
2023-06-22T07:51:30.866Z,2.67
2023-06-22T07:53:59.474Z,2.53
2023-06-22T07:56:28.099Z,2.90
2023-06-22T07:58:59.246Z,3.00
2023-06-22T08:01:29.225Z,2.95
2023-06-22T08:03:57.768Z,2.58
2023-06-22T08:06:26.428Z,2.78
2023-06-22T08:08:55.520Z,2.80
2023-06-22T08:11:26.217Z,2.50
2023-06-22T08:13:56.686Z,2.53
2023-06-22T08:16:25.216Z,2.30
2023-06-22T08:18:55.809Z,2.65
2023-06-22T08:21:24.371Z,2.83
2023-06-22T08:23:52.967Z,2.47
2023-06-22T08:26:21.918Z,2.60
2023-06-22T08:28:51.156Z,2.40
2023-06-22T08:31:19.721Z,2.70
2023-06-22T08:33:50.023Z,2.50
2023-06-22T08:36:20.633Z,2.63
2023-06-22T08:38:51.410Z,2.80
2023-06-22T08:41:20.063Z,2.80
2023-06-22T08:43:48.532Z,3.13
2023-06-22T08:46:21.048Z,2.97
2023-06-22T08:48:49.629Z,2.65
2023-06-22T08:51:18.325Z,3.03
2023-06-22T08:53:48.209Z,2.53
2023-06-22T08:56:16.714Z,2.55
2023-06-22T08:58:45.200Z,2.90
2023-06-22T09:01:13.778Z,2.85
2023-06-22T09:03:42.393Z,2.45
2023-06-22T09:06:11.543Z,3.00
2023-06-22T09:08:40.118Z,2.22
2023-06-22T09:11:09.952Z,2.45
2023-06-22T09:13:38.535Z,2.75
2023-06-22T09:16:07.740Z,2.80
2023-06-22T09:18:37.182Z,2.70
2023-06-22T09:21:05.977Z,2.92
2023-06-22T09:23:34.652Z,2.70
2023-06-22T09:26:05.191Z,2.72
2023-06-22T09:28:35.114Z,3.00
2023-06-22T09:31:03.682Z,3.20
2023-06-22T09:33:32.338Z,2.70
2023-06-22T09:36:00.844Z,2.92
2023-06-22T09:38:29.360Z,2.63
2023-06-22T09:40:57.800Z,2.78
2023-06-22T09:43:26.250Z,2.65
2023-06-22T09:45:56.206Z,2.55
2023-06-22T09:48:24.729Z,2.75
2023-06-22T09:50:53.317Z,3.03
2023-06-22T09:53:21.775Z,2.42
2023-06-22T09:55:50.301Z,2.95
2023-06-22T09:58:18.799Z,2.90
2023-06-22T10:00:47.286Z,2.80
2023-06-22T10:03:17.382Z,2.80
2023-06-22T10:05:47.272Z,2.80
2023-06-22T10:08:16.509Z,2.85
2023-06-22T10:10:45.048Z,2.55
2023-06-22T10:13:13.563Z,2.65
2023-06-22T10:15:42.149Z,2.72
2023-06-22T10:18:10.755Z,2.70
2023-06-22T10:20:40.706Z,2.88
2023-06-22T10:23:09.178Z,2.85
2023-06-22T10:25:37.655Z,2.85
2023-06-22T10:28:06.199Z,2.53
2023-06-22T10:30:34.806Z,3.13
2023-06-22T10:33:03.403Z,2.95
2023-06-22T10:35:32.080Z,3.33
2023-06-22T10:38:02.149Z,2.60
2023-06-22T10:40:30.697Z,3.40
2023-06-22T10:42:59.419Z,3.00
2023-06-22T10:45:28.569Z,3.17
2023-06-22T10:47:57.326Z,2.90
2023-06-22T10:50:26.994Z,2.97
2023-06-22T10:52:58.788Z,3.38
2023-06-22T10:55:40.268Z,3.22
2023-06-22T10:58:15.749Z,2.75
2023-06-22T11:00:44.295Z,3.28
2023-06-22T11:03:14.810Z,2.80
2023-06-22T11:05:43.628Z,3.42
2023-06-22T11:08:12.207Z,2.92
2023-06-22T11:10:42.029Z,2.97
2023-06-22T11:13:12.439Z,3.17
2023-06-22T11:15:41.226Z,3.10
2023-06-22T11:18:09.865Z,3.10
2023-06-22T11:20:39.947Z,3.30
2023-06-22T11:23:08.693Z,3.13
2023-06-22T11:25:39.161Z,2.88
2023-06-22T11:28:09.080Z,3.47
2023-06-22T11:30:37.574Z,3.15
2023-06-22T11:33:06.074Z,3.22
2023-06-22T11:35:34.557Z,3.50
2023-06-22T11:38:04.479Z,3.65
2023-06-22T11:40:33.096Z,3.47
2023-06-22T11:43:03.652Z,3.10
2023-06-22T11:45:36.066Z,3.40
2023-06-22T11:48:05.235Z,3.67
2023-06-22T11:50:36.882Z,3.13
2023-06-22T11:53:05.506Z,3.05
2023-06-22T11:55:34.072Z,3.45
2023-06-22T11:58:04.435Z,3.67
2023-06-22T12:00:45.987Z,3.63
2023-06-22T12:03:20.635Z,3.67
2023-06-22T12:05:49.729Z,3.92
2023-06-22T12:08:18.430Z,3.70
2023-06-22T12:10:47.020Z,3.28
2023-06-22T12:13:15.607Z,3.50
2023-06-22T12:15:44.087Z,3.47
2023-06-22T12:18:12.913Z,3.88
2023-06-22T12:20:42.839Z,3.78
2023-06-22T12:23:11.360Z,3.85
2023-06-22T12:25:39.893Z,3.55
2023-06-22T12:28:08.413Z,3.42
2023-06-22T12:30:37.046Z,3.45
2023-06-22T12:33:05.570Z,3.67
2023-06-22T12:35:34.110Z,3.95
2023-06-22T12:38:04.425Z,4.13
2023-06-22T12:40:34.422Z,4.60
2023-06-22T12:43:03.375Z,4.63
2023-06-22T12:45:37.304Z,5.07
2023-06-22T12:48:06.957Z,5.50
2023-06-22T12:50:35.559Z,5.18
2023-06-22T12:53:07.203Z,5.03
2023-06-22T12:55:35.773Z,4.75
2023-06-22T12:58:04.304Z,5.53
2023-06-22T13:00:33.073Z,5.38
2023-06-22T13:03:01.866Z,5.28
2023-06-22T13:05:31.636Z,5.47
2023-06-22T13:08:00.140Z,5.15
2023-06-22T13:10:30.255Z,4.75
2023-06-22T13:13:01.557Z,4.88
2023-06-22T13:15:30.714Z,5.35
2023-06-22T13:17:59.420Z,5.30
2023-06-22T13:20:29.114Z,5.20
2023-06-22T13:22:57.976Z,4.75
2023-06-22T13:25:27.827Z,5.75
2023-06-22T13:27:58.089Z,4.88
2023-06-22T13:30:26.687Z,5.20
2023-06-22T13:32:55.259Z,5.55
2023-06-22T13:35:23.915Z,5.72
2023-06-22T13:37:52.370Z,5.10
2023-06-22T13:40:20.860Z,5.50
2023-06-22T13:42:49.489Z,5.45
2023-06-22T13:45:20.131Z,4.60
2023-06-22T13:47:48.966Z,4.93
2023-06-22T13:50:17.476Z,5.07
2023-06-22T13:52:45.951Z,5.60
2023-06-22T13:55:15.349Z,4.45
2023-06-22T13:57:44.688Z,5.00
2023-06-22T14:00:14.584Z,4.82
2023-06-22T14:02:44.625Z,4.72
2023-06-22T14:05:13.391Z,4.82
2023-06-22T14:07:42.544Z,5.25
2023-06-22T14:10:11.706Z,5.13
2023-06-22T14:12:40.438Z,5.05
2023-06-22T14:15:09.573Z,4.82
2023-06-22T14:17:38.110Z,4.90
2023-06-22T14:20:09.826Z,4.70
2023-06-22T14:22:38.550Z,4.80
2023-06-22T14:25:08.313Z,4.80
2023-06-22T14:27:36.912Z,4.65
2023-06-22T14:30:07.390Z,4.68
2023-06-22T14:32:36.024Z,4.80
2023-06-22T14:35:04.892Z,4.43
2023-06-22T14:37:34.698Z,4.43
2023-06-22T14:40:03.301Z,4.35
2023-06-22T14:42:32.174Z,4.05
2023-06-22T14:45:00.641Z,4.38
2023-06-22T14:47:29.582Z,4.10
2023-06-22T14:49:58.180Z,4.40
2023-06-22T14:52:26.901Z,5.03
2023-06-22T14:54:57.739Z,4.00
2023-06-22T14:57:26.208Z,3.97
2023-06-22T14:59:54.891Z,4.18
2023-06-22T15:02:23.884Z,4.22
2023-06-22T15:04:54.100Z,4.22
2023-06-22T15:07:22.559Z,4.03
2023-06-22T15:09:51.273Z,3.78
2023-06-22T15:12:21.163Z,4.05
2023-06-22T15:14:49.658Z,4.75
2023-06-22T15:17:18.193Z,4.00
2023-06-22T15:19:46.634Z,4.70
2023-06-22T15:22:17.690Z,4.80
2023-06-22T15:24:46.684Z,4.28
2023-06-22T15:27:15.214Z,4.03
2023-06-22T15:29:45.066Z,4.30
2023-06-22T15:32:13.909Z,4.10
2023-06-22T15:34:42.363Z,4.45
2023-06-22T15:37:10.962Z,4.25
2023-06-22T15:39:39.551Z,4.00
2023-06-22T15:42:08.369Z,4.20
2023-06-22T15:44:36.863Z,4.10
2023-06-22T15:47:07.115Z,4.63
2023-06-22T15:49:35.669Z,3.65
2023-06-22T15:52:04.455Z,4.03
2023-06-22T15:54:33.187Z,4.22
2023-06-22T15:57:01.650Z,3.90
2023-06-22T15:59:30.144Z,4.00
2023-06-22T16:01:58.807Z,3.85
2023-06-22T16:04:28.658Z,3.90
2023-06-22T16:06:57.134Z,3.97
2023-06-22T16:09:25.558Z,4.53
2023-06-22T16:11:54.088Z,3.95
2023-06-22T16:14:23.371Z,4.13
2023-06-22T16:16:51.883Z,4.18
2023-06-22T16:19:20.452Z,4.30
2023-06-22T16:21:50.422Z,4.13
2023-06-22T16:24:18.949Z,4.75
2023-06-22T16:26:48.728Z,4.22
2023-06-22T16:29:17.198Z,4.50
2023-06-22T16:31:45.879Z,4.50
2023-06-22T16:34:14.397Z,4.65
2023-06-22T16:36:42.943Z,4.25
2023-06-22T16:39:12.956Z,4.55
2023-06-22T16:41:41.733Z,4.18
2023-06-22T16:44:10.254Z,4.55
2023-06-22T16:46:40.007Z,4.25
2023-06-22T16:49:08.472Z,3.92
2023-06-22T16:51:36.906Z,3.58
2023-06-22T16:54:06.401Z,3.60
2023-06-22T16:56:36.592Z,3.70
2023-06-22T16:59:08.006Z,3.70
2023-06-22T17:01:39.126Z,3.08
2023-06-22T17:04:10.852Z,3.33
2023-06-22T17:06:43.591Z,3.80
2023-06-22T17:09:15.057Z,3.05
2023-06-22T17:11:44.952Z,3.03
2023-06-22T17:14:13.822Z,3.40
2023-06-22T17:16:45.690Z,3.00
2023-06-22T17:19:14.807Z,3.20
2023-06-22T17:21:44.689Z,3.13
2023-06-22T17:24:17.759Z,3.50
2023-06-22T17:26:53.249Z,3.25
2023-06-22T17:29:21.985Z,2.67
2023-06-22T17:31:50.711Z,2.83
2023-06-22T17:34:20.456Z,3.40
2023-06-22T17:36:50.253Z,2.70
2023-06-22T17:39:21.309Z,3.30
2023-06-22T17:41:52.460Z,3.33
2023-06-22T17:44:21.910Z,3.00
2023-06-22T17:46:54.043Z,3.38
2023-06-22T17:49:23.337Z,2.90
2023-06-22T17:51:52.310Z,3.42
2023-06-22T17:54:27.670Z,3.03
2023-06-22T17:57:16.227Z,3.38
2023-06-22T17:59:49.787Z,3.30
2023-06-22T18:02:23.825Z,3.70
2023-06-22T18:04:52.698Z,4.55
2023-06-22T18:07:21.345Z,4.93
2023-06-22T18:09:49.838Z,5.53
2023-06-22T18:12:21.498Z,4.65
2023-06-22T18:14:50.121Z,4.32
2023-06-22T18:17:22.565Z,3.80
2023-06-22T18:19:52.560Z,3.55
2023-06-22T18:22:21.386Z,4.18
2023-06-22T18:24:51.508Z,3.70
2023-06-22T18:27:21.918Z,3.45
2023-06-22T18:29:52.270Z,3.03
2023-06-22T18:32:21.074Z,3.47
2023-06-22T18:34:52.373Z,3.08
2023-06-22T18:37:22.089Z,3.35
2023-06-22T18:39:54.190Z,3.03
2023-06-22T18:42:24.246Z,3.40
2023-06-22T18:44:54.240Z,3.20
2023-06-22T18:47:29.766Z,2.75
2023-06-22T18:50:07.223Z,3.42
2023-06-22T18:52:37.185Z,2.92
2023-06-22T18:55:07.526Z,3.30
2023-06-22T18:57:38.090Z,3.10
2023-06-22T19:00:10.580Z,2.58
2023-06-22T19:02:44.456Z,2.60
2023-06-22T19:07:59.815Z,2.78
2023-06-22T19:10:30.062Z,2.47
2023-06-22T19:13:18.826Z,2.80
2023-06-22T19:15:49.423Z,2.67
2023-06-22T19:18:18.775Z,2.92
2023-06-22T19:20:49.400Z,2.95
2023-06-22T19:23:31.582Z,2.95
2023-06-22T19:26:01.752Z,2.90
2023-06-22T19:28:32.834Z,2.47
2023-06-22T19:31:02.964Z,2.50
2023-06-22T19:33:31.479Z,2.60
2023-06-22T19:36:03.563Z,2.97
2023-06-22T19:38:34.613Z,2.17
2023-06-22T19:41:03.623Z,2.72
2023-06-22T19:43:33.679Z,2.78
2023-06-22T19:46:02.642Z,2.67
2023-06-22T19:48:32.449Z,3.10
2023-06-22T19:51:05.538Z,2.45
2023-06-22T19:53:34.259Z,2.67
2023-06-22T19:56:02.854Z,2.38
2023-06-22T19:58:36.753Z,2.85
2023-06-22T20:03:34.790Z,2.60
2023-06-22T20:06:11.408Z,2.50
2023-06-22T20:08:48.321Z,2.53
2023-06-22T20:11:24.863Z,2.58
2023-06-22T20:13:55.520Z,3.10
2023-06-22T20:16:24.819Z,2.53
2023-06-22T20:19:07.311Z,2.47
2023-06-22T20:21:36.215Z,2.40
2023-06-22T20:24:06.276Z,2.15
2023-06-22T20:26:40.005Z,2.13
2023-06-22T20:29:30.002Z,2.28
2023-06-22T20:32:06.422Z,2.33
2023-06-22T20:34:36.379Z,2.40
2023-06-22T20:37:05.420Z,2.22
2023-06-22T20:39:34.009Z,2.30
2023-06-22T20:42:05.276Z,2.00
2023-06-22T20:44:35.750Z,2.42
2023-06-22T20:47:05.490Z,2.67
2023-06-22T20:49:36.633Z,2.47
2023-06-22T20:52:07.874Z,2.63
2023-06-22T20:54:36.997Z,2.13
2023-06-22T20:57:05.992Z,2.42
2023-06-22T20:59:36.059Z,2.17
2023-06-22T21:02:05.304Z,2.35
2023-06-22T21:04:36.559Z,2.10
2023-06-22T21:07:06.683Z,2.33
2023-06-22T21:09:46.102Z,2.05
2023-06-22T21:12:19.245Z,2.00
2023-06-22T21:14:50.685Z,2.30
2023-06-22T21:17:19.896Z,2.45
2023-06-22T21:19:48.530Z,2.17
2023-06-22T21:22:17.154Z,1.98
2023-06-22T21:24:46.370Z,2.17
2023-06-22T21:27:15.030Z,2.25
2023-06-22T21:29:43.565Z,2.30
2023-06-22T21:32:13.390Z,2.08
2023-06-22T21:34:41.902Z,2.20
2023-06-22T21:37:10.312Z,2.08
2023-06-22T21:39:38.757Z,2.42
2023-06-22T21:42:07.821Z,2.42
2023-06-22T21:44:36.299Z,2.17
2023-06-22T21:47:05.050Z,2.00
2023-06-22T21:49:34.880Z,1.98
2023-06-22T21:52:03.552Z,1.98
2023-06-22T21:54:32.069Z,2.17
2023-06-22T21:57:00.554Z,1.98
2023-06-22T21:59:29.089Z,1.95
2023-06-22T22:01:57.712Z,2.30
2023-06-22T22:04:26.245Z,2.03
2023-06-22T22:06:56.062Z,1.80
2023-06-22T22:09:24.568Z,1.80
2023-06-22T22:11:53.131Z,1.98
2023-06-22T22:14:21.657Z,1.90
2023-06-22T22:16:50.126Z,2.20
2023-06-22T22:19:18.626Z,1.90
2023-06-22T22:21:48.443Z,1.95
2023-06-22T22:24:18.346Z,2.00
2023-06-22T22:26:46.807Z,1.77
2023-06-22T22:29:15.358Z,1.90
2023-06-22T22:31:43.875Z,1.80
2023-06-22T22:34:12.394Z,1.85
2023-06-22T22:36:41.262Z,1.90
2023-06-22T22:39:11.080Z,1.80
2023-06-22T22:41:41.428Z,1.83
2023-06-22T22:44:09.872Z,1.90
2023-06-22T22:46:38.468Z,1.88
2023-06-22T22:49:06.986Z,1.80
2023-06-22T22:51:35.435Z,1.77
2023-06-22T22:54:04.010Z,1.83
2023-06-22T22:56:32.479Z,1.80
2023-06-22T22:59:02.492Z,2.42
2023-06-22T23:01:30.959Z,1.98
2023-06-22T23:03:59.421Z,1.80
2023-06-22T23:06:27.955Z,1.77
2023-06-22T23:08:58.444Z,1.52
2023-06-22T23:11:27.364Z,1.70
2023-06-22T23:13:58.239Z,1.70
2023-06-22T23:16:29.625Z,1.58
2023-06-22T23:18:58.083Z,1.80
2023-06-22T23:21:30.144Z,1.83
2023-06-22T23:23:58.701Z,1.58
2023-06-22T23:26:29.221Z,1.85
2023-06-22T23:28:58.128Z,1.95
2023-06-22T23:31:26.827Z,1.77
2023-06-22T23:33:56.597Z,1.60
2023-06-22T23:36:26.347Z,1.70
2023-06-22T23:38:55.376Z,1.90
2023-06-22T23:41:26.215Z,2.10
2023-06-22T23:43:55.237Z,1.63
2023-06-22T23:46:23.837Z,1.70
2023-06-22T23:48:53.739Z,1.90
2023-06-22T23:51:23.627Z,2.20
2023-06-22T23:53:52.049Z,1.60
2023-06-22T23:56:21.657Z,1.55
2023-06-22T23:58:51.064Z,1.88
